Wentworth, Wisconsin
Current Conditions -  °F | °C
As of 8:55 AM on Wednesday 26 Nov 2014 (Local Time) from KSUW Reporting Station
Overcast Overcast  
Wind Chill: 15°   Ceiling: 3000
Heat Index: 21°   Visibility: 10mi
Dew Point: 15°   Wind: 5mph
Humidity: 77%   Direction: 330°NNW
Pressure: 30.2"   Gusts: NA
Location:  46.578°N, 91.9335°W
Report Text: KSUW 261455Z AUTO 33004KT 10SM SCT020 BKN030 OVC042 M06/M09 A3020 RMK AO2 T10601095
Loading
Personal Weather Stations






























Interactive Weather Map New forecast layout! Learn more

10-Day Weather Forecast

Advertisements
Track Severe Weather on mobile